Time;durP1;ratioP1;P1;durP2;ratioP2;P2;SDS_P1;SDS_P2;PMS_P1;PMS_P2;Temp;Humidity;BMP_temperature;BMP_pressure;BME280_temperature;BME280_humidity;BME280_pressure;Samples;Min_cycle;Max_cycle;Signal;HPM_P1;HPM_P2
2024/02/10 00:01:46;;;;;;;5.80;3.70;;;;;;;2.09;84.02;98464.88;79720;1296;3013928;-65
2024/02/10 00:04:19;;;;;;;7.70;4.50;;;;;;;1.96;84.75;98471.80;78304;1297;3050573;-62
2024/02/10 00:06:46;;;;;;;6.20;3.70;;;;;;;1.90;85.11;98467.73;79416;1295;3013085;-64
2024/02/10 00:09:14;;;;;;;6.60;3.90;;;;;;;1.77;85.86;98474.64;78422;1294;3052177;-63
2024/02/10 00:11:41;;;;;;;7.00;4.20;;;;;;;1.75;86.20;98468.70;79527;1297;3013108;-67
2024/02/10 00:14:10;;;;;;;5.60;3.20;;;;;;;1.67;86.67;98467.95;79407;1298;3011793;-65
2024/02/10 00:16:38;;;;;;;5.30;3.80;;;;;;;2.13;85.75;98459.54;78341;1297;3049554;-63
2024/02/10 00:19:11;;;;;;;6.90;3.30;;;;;;;2.71;83.96;98456.84;79487;1294;3013467;-66
2024/02/10 00:21:39;;;;;;;4.70;3.40;;;;;;;2.88;82.68;98455.23;78198;1298;3052861;-62
2024/02/10 00:24:06;;;;;;;4.90;3.30;;;;;;;2.73;82.66;98455.21;79662;1297;3021209;-64
2024/02/10 00:26:33;;;;;;;6.90;3.70;;;;;;;2.68;82.98;98458.02;79700;1298;3013239;-62
2024/02/10 00:29:01;;;;;;;5.70;3.70;;;;;;;2.49;83.25;98452.64;78250;1298;3055578;-62
2024/02/10 00:31:28;;;;;;;5.90;3.20;;;;;;;2.21;84.17;98449.35;79542;1298;3018741;-63
2024/02/10 00:33:57;;;;;;;5.80;3.70;;;;;;;2.10;84.67;98456.86;79519;1295;3011534;-62
2024/02/10 00:36:25;;;;;;;7.00;3.40;;;;;;;2.05;85.19;98458.83;78327;1298;3052671;-63
2024/02/10 00:38:51;;;;;;;6.20;4.00;;;;;;;2.02;85.19;98455.33;79590;1297;3013613;-63
2024/02/10 00:41:19;;;;;;;6.20;3.70;;;;;;;1.89;85.70;98456.73;79644;1298;3011569;-63
2024/02/10 00:43:48;;;;;;;5.90;3.50;;;;;;;1.75;86.48;98455.88;78374;1297;3057109;-62
2024/02/10 00:46:15;;;;;;;7.40;3.20;;;;;;;1.73;87.04;98463.06;79559;1295;3013932;-64
2024/02/10 00:48:43;;;;;;;5.50;3.40;;;;;;;2.28;86.09;98460.59;79454;1296;3014110;-64
2024/02/10 00:51:12;;;;;;;6.50;3.20;;;;;;;2.94;83.71;98460.50;78271;1295;3051954;-63
2024/02/10 00:53:41;;;;;;;4.30;3.20;;;;;;;3.06;82.54;98463.94;79372;1298;3011613;-64
2024/02/10 00:56:10;;;;;;;6.10;3.20;;;;;;;2.95;82.45;98466.31;78197;1296;3051989;-63
2024/02/10 00:58:40;;;;;;;5.00;3.50;;;;;;;2.80;82.84;98465.61;79485;1295;3015610;-63
2024/02/10 01:01:12;;;;;;;7.50;4.00;;;;;;;2.66;83.45;98463.64;78067;1298;3053690;-63
2024/02/10 01:03:45;;;;;;;5.90;4.10;;;;;;;2.46;84.03;98460.17;79270;1295;3011616;-66
2024/02/10 01:06:25;;;;;;;6.70;4.00;;;;;;;2.30;84.25;98463.96;78175;1297;3050736;-61
2024/02/10 01:08:54;;;;;;;7.40;4.00;;;;;;;2.17;85.16;98463.34;78182;1297;3052734;-65
2024/02/10 01:11:22;;;;;;;7.30;4.10;;;;;;;2.07;85.82;98461.14;79527;1297;3019036;-64
2024/02/10 01:13:49;;;;;;;10.50;4.60;;;;;;;2.03;86.41;98457.36;79478;1294;3013295;-64
2024/02/10 01:16:18;;;;;;;10.70;5.10;;;;;;;1.94;86.70;98456.65;78392;1294;3049237;-63
2024/02/10 01:18:46;;;;;;;10.30;3.60;;;;;;;1.93;86.95;98454.50;79343;1293;3019434;-60
2024/02/10 01:21:12;;;;;;;9.90;4.80;;;;;;;2.39;85.91;98443.35;79473;1295;3011631;-61
2024/02/10 01:23:46;;;;;;;10.60;4.60;;;;;;;2.96;83.74;98449.16;78284;1298;3052887;-64
2024/02/10 01:26:13;;;;;;;7.60;4.20;;;;;;;3.02;82.87;98448.20;79522;1295;3011510;-62
2024/02/10 01:28:44;;;;;;;6.70;3.90;;;;;;;2.98;83.15;98443.87;78363;1294;3051148;-63
2024/02/10 01:31:12;;;;;;;6.10;4.00;;;;;;;2.75;83.23;98447.67;79507;1294;3011613;-66
2024/02/10 01:33:41;;;;;;;7.20;4.70;;;;;;;2.55;84.13;98449.43;78270;1297;3026648;-62
2024/02/10 01:36:09;;;;;;;8.10;5.20;;;;;;;2.38;84.73;98450.33;79568;1294;3013956;-64
2024/02/10 01:38:42;;;;;;;7.40;4.20;;;;;;;2.30;85.21;98451.89;79465;1296;3011857;-63
2024/02/10 01:41:11;;;;;;;7.80;4.30;;;;;;;2.09;85.68;98459.86;78273;1298;3053000;-60
2024/02/10 01:43:38;;;;;;;8.80;4.20;;;;;;;1.98;86.38;98460.66;79658;1295;3013007;-61
2024/02/10 01:46:15;;;;;;;9.40;4.80;;;;;;;1.91;86.63;98459.58;79399;1298;3013265;-62
2024/02/10 01:48:43;;;;;;;9.10;4.10;;;;;;;1.88;87.57;98461.42;78179;1294;3049253;-60
2024/02/10 01:51:10;;;;;;;6.20;3.80;;;;;;;2.44;86.35;98465.80;79528;1295;3012985;-66
2024/02/10 01:53:38;;;;;;;6.90;3.80;;;;;;;3.05;84.10;98464.98;79499;1295;3013289;-62
2024/02/10 01:56:09;;;;;;;7.20;3.70;;;;;;;3.17;83.04;98466.34;78166;1299;3053087;-63
2024/02/10 01:58:36;;;;;;;7.10;4.10;;;;;;;3.06;82.72;98461.84;79390;1294;3011882;-61
2024/02/10 02:01:06;;;;;;;4.90;3.20;;;;;;;2.84;83.38;98463.55;78869;1295;3013290;-65
2024/02/10 02:03:33;;;;;;;8.50;4.30;;;;;;;2.56;83.95;98460.61;79457;1298;3013675;-64
2024/02/10 02:06:00;;;;;;;10.40;4.40;;;;;;;2.42;84.64;98459.99;79437;1295;3011658;-63
2024/02/10 02:08:28;;;;;;;6.00;4.20;;;;;;;2.32;85.35;98458.70;78279;1297;3050026;-67
2024/02/10 02:10:55;;;;;;;7.30;4.20;;;;;;;2.17;86.02;98456.60;79548;1297;3021387;-64
2024/02/10 02:13:22;;;;;;;8.60;4.50;;;;;;;2.05;86.37;98458.66;79553;1297;3012269;-62
2024/02/10 02:15:58;;;;;;;7.70;4.20;;;;;;;1.97;87.03;98462.77;78229;1295;3051729;-64
2024/02/10 02:18:26;;;;;;;5.60;3.20;;;;;;;1.89;87.43;98462.77;78210;1298;3056790;-63
2024/02/10 02:20:54;;;;;;;5.50;3.40;;;;;;;2.35;86.74;98462.71;79642;1295;3013206;-65
2024/02/10 02:23:21;;;;;;;7.00;3.50;;;;;;;2.95;84.46;98464.22;79362;1295;3011697;-63
2024/02/10 02:25:48;;;;;;;5.60;3.40;;;;;;;3.02;83.38;98463.61;78365;1295;3052700;-62
2024/02/10 02:28:16;;;;;;;7.10;3.40;;;;;;;2.96;83.62;98465.06;79494;1295;3013506;-65
2024/02/10 02:30:43;;;;;;;6.90;3.70;;;;;;;2.74;83.93;98465.19;79481;1298;3012174;-64
2024/02/10 02:33:13;;;;;;;6.80;4.10;;;;;;;2.59;84.71;98461.01;78302;1298;3057501;-65
2024/02/10 02:35:40;;;;;;;5.70;3.20;;;;;;;2.40;85.25;98460.79;79541;1293;3011947;-65
2024/02/10 02:38:07;;;;;;;6.80;3.60;;;;;;;2.26;85.71;98460.49;79716;1298;3011823;-63
2024/02/10 02:40:35;;;;;;;5.80;3.90;;;;;;;2.17;86.30;98464.35;78218;1298;3052854;-64
2024/02/10 02:43:04;;;;;;;4.40;3.30;;;;;;;2.08;86.67;98460.07;79621;1298;3012947;-62
2024/02/10 02:45:30;;;;;;;5.00;3.50;;;;;;;1.91;87.43;98461.83;79665;1295;3013452;-64
2024/02/10 02:48:01;;;;;;;4.40;2.50;;;;;;;1.81;88.07;98463.61;78327;1298;3055857;-61
2024/02/10 02:50:28;;;;;;;3.30;2.60;;;;;;;2.25;87.45;98458.83;79540;1295;3013047;-64
2024/02/10 02:53:02;;;;;;;5.20;2.70;;;;;;;2.86;85.07;98456.86;79101;1298;3011601;-63
2024/02/10 02:55:29;;;;;;;4.30;2.70;;;;;;;3.04;83.92;98459.86;79499;1295;3013384;-62
2024/02/10 02:58:02;;;;;;;4.10;2.70;;;;;;;2.94;83.83;98463.09;78231;1297;3053946;-63
2024/02/10 03:00:31;;;;;;;6.70;3.20;;;;;;;2.65;84.13;98463.31;79461;1298;3011666;-64
2024/02/10 03:03:03;;;;;;;6.10;2.90;;;;;;;2.39;85.06;98467.73;78229;1297;3069388;-64
2024/02/10 03:05:31;;;;;;;3.70;2.40;;;;;;;2.32;85.95;98462.68;79519;1295;3011883;-65
2024/02/10 03:07:59;;;;;;;6.90;2.80;;;;;;;2.25;85.98;98466.95;78330;1294;3057415;-63
2024/02/10 03:10:26;;;;;;;5.40;3.00;;;;;;;2.07;86.28;98463.05;79498;1294;3013051;-64
2024/02/10 03:12:53;;;;;;;4.90;3.10;;;;;;;2.08;86.88;98469.40;79419;1296;3013551;-63
2024/02/10 03:15:21;;;;;;;4.20;3.00;;;;;;;1.97;86.78;98466.94;78281;1295;3052610;-61
2024/02/10 03:17:49;;;;;;;4.50;2.70;;;;;;;1.84;87.47;98470.04;79480;1297;3013204;-63
2024/02/10 03:20:21;;;;;;;3.70;2.40;;;;;;;2.36;86.87;98470.27;79459;1295;3011656;-63
2024/02/10 03:23:01;;;;;;;4.50;2.50;;;;;;;2.93;84.40;98472.98;78325;1298;3056824;-62
2024/02/10 03:25:29;;;;;;;4.50;2.60;;;;;;;2.93;83.71;98467.11;78172;1298;3049207;-61
2024/02/10 03:27:56;;;;;;;3.50;2.40;;;;;;;2.78;83.91;98469.48;79385;1296;3020663;-66
2024/02/10 03:30:23;;;;;;;4.70;2.70;;;;;;;2.68;84.62;98467.55;79449;1295;3012792;-64
2024/02/10 03:32:55;;;;;;;5.20;2.90;;;;;;;2.43;84.98;98459.27;78272;1295;3026654;-62
2024/02/10 03:35:21;;;;;;;3.70;2.50;;;;;;;2.33;85.91;98456.60;79932;1294;3013699;-65
2024/02/10 03:37:49;;;;;;;3.50;2.60;;;;;;;2.17;86.44;98452.45;78363;1298;3025229;-63
2024/02/10 03:40:20;;;;;;;4.90;2.80;;;;;;;2.12;87.12;98451.29;79827;1295;3013859;-62
2024/02/10 03:42:48;;;;;;;3.60;2.90;;;;;;;2.07;87.35;98449.58;78290;1293;3052750;-64
2024/02/10 03:45:15;;;;;;;4.30;2.90;;;;;;;1.89;87.78;98446.20;79344;1298;3013216;-63
2024/02/10 03:47:45;;;;;;;4.90;2.40;;;;;;;1.78;88.62;98448.52;79570;1297;3011574;-62
2024/02/10 03:50:13;;;;;;;3.50;2.40;;;;;;;2.36;87.63;98453.34;78376;1297;3069174;-64
2024/02/10 03:52:40;;;;;;;3.90;2.40;;;;;;;2.89;85.33;98456.05;79702;1295;3013730;-62
2024/02/10 03:55:08;;;;;;;3.80;2.70;;;;;;;3.02;84.28;98454.96;79409;1295;3013679;-63
2024/02/10 03:57:37;;;;;;;4.60;3.20;;;;;;;2.89;84.24;98455.17;78294;1295;3053418;-63
2024/02/10 04:00:08;;;;;;;5.80;2.90;;;;;;;2.80;84.71;98449.19;79563;1298;3011880;-62
2024/02/10 04:02:36;;;;;;;5.00;3.00;;;;;;;2.61;84.86;98451.41;78457;1298;3051564;-63
2024/02/10 04:05:05;;;;;;;4.10;3.20;;;;;;;2.46;85.35;98449.13;79620;1298;3013018;-61
2024/02/10 04:07:35;;;;;;;3.90;2.80;;;;;;;2.37;85.79;98450.21;79409;1294;3011221;-63
2024/02/10 04:10:12;;;;;;;6.10;3.20;;;;;;;2.17;86.18;98452.77;78131;1298;3049706;-62
2024/02/10 04:12:40;;;;;;;4.90;3.00;;;;;;;2.00;87.18;98453.69;78122;1298;3053188;-62
2024/02/10 04:15:11;;;;;;;2.90;2.60;;;;;;;1.93;87.96;98455.36;79452;1293;3020603;-62
2024/02/10 04:17:39;;;;;;;4.60;3.00;;;;;;;2.48;87.00;98452.85;78272;1298;3051527;-63
2024/02/10 04:20:07;;;;;;;4.30;2.50;;;;;;;3.04;84.71;98454.82;79630;1298;3011610;-61
2024/02/10 04:22:42;;;;;;;2.90;2.50;;;;;;;3.14;83.57;98453.68;79463;1298;3012638;-62
2024/02/10 04:25:10;;;;;;;3.60;2.50;;;;;;;3.11;83.71;98451.05;78193;1295;3048596;-62
2024/02/10 04:27:36;;;;;;;4.00;3.00;;;;;;;3.06;83.86;98446.77;79510;1297;3013401;-63
2024/02/10 04:30:07;;;;;;;4.20;2.70;;;;;;;3.02;84.27;98452.68;79381;1298;3011699;-63
2024/02/10 04:32:39;;;;;;;4.60;3.30;;;;;;;2.85;84.01;98454.83;78324;1298;3052808;-62
2024/02/10 04:35:06;;;;;;;4.80;3.40;;;;;;;2.69;84.45;98460.20;79540;1294;3011956;-64
2024/02/10 04:37:35;;;;;;;4.60;3.00;;;;;;;2.55;84.76;98466.52;78237;1298;3026243;-60
2024/02/10 04:40:03;;;;;;;3.20;2.60;;;;;;;2.48;85.27;98471.00;79507;1295;3012818;-63
2024/02/10 04:42:32;;;;;;;4.60;3.20;;;;;;;2.35;85.42;98470.34;78159;1298;3025810;-63
2024/02/10 04:44:59;;;;;;;4.00;2.50;;;;;;;2.28;86.12;98471.31;79491;1298;3013473;-63
2024/02/10 04:47:26;;;;;;;5.20;2.90;;;;;;;2.87;85.27;98476.34;79374;1298;3011663;-64
2024/02/10 04:49:55;;;;;;;4.10;2.40;;;;;;;3.38;82.56;98473.17;78274;1298;3025976;-64
2024/02/10 04:52:22;;;;;;;3.90;2.50;;;;;;;3.53;81.74;98476.27;79456;1298;3013247;-62
2024/02/10 04:54:53;;;;;;;4.10;2.80;;;;;;;3.40;81.67;98479.46;79537;1295;3011508;-63
2024/02/10 04:57:28;;;;;;;5.80;3.30;;;;;;;3.15;82.09;98483.73;78257;1298;3049305;-63
2024/02/10 05:00:06;;;;;;;4.20;2.80;;;;;;;3.02;82.95;98483.14;78962;1298;3011906;-63
2024/02/10 05:02:36;;;;;;;5.20;3.20;;;;;;;2.78;83.42;98477.62;78218;1295;3054143;-61
2024/02/10 05:05:06;;;;;;;4.30;3.00;;;;;;;2.73;84.22;98477.50;79431;1298;3011830;-63
2024/02/10 05:07:35;;;;;;;4.00;2.80;;;;;;;2.53;84.42;98475.25;78282;1298;3052000;-63
2024/02/10 05:10:02;;;;;;;4.60;3.40;;;;;;;2.34;85.37;98470.05;79350;1298;3016186;-63
2024/02/10 05:12:29;;;;;;;6.10;4.10;;;;;;;2.23;85.89;98470.30;79499;1295;3011991;-63
2024/02/10 05:14:57;;;;;;;5.10;3.30;;;;;;;2.15;86.61;98471.73;78247;1294;3049148;-64
2024/02/10 05:17:23;;;;;;;4.90;3.00;;;;;;;2.65;85.59;98469.55;79481;1298;3013136;-61
2024/02/10 05:19:50;;;;;;;5.20;2.90;;;;;;;3.11;83.43;98476.33;79505;1295;3012090;-63
2024/02/10 05:22:18;;;;;;;4.10;2.80;;;;;;;3.33;82.70;98477.92;78533;1298;3028834;-64
2024/02/10 05:24:48;;;;;;;4.60;3.10;;;;;;;3.29;82.40;98473.06;79470;1295;3012915;-66
2024/02/10 05:27:16;;;;;;;6.40;3.70;;;;;;;3.05;82.73;98472.45;78402;1297;3056700;-65
2024/02/10 05:29:42;;;;;;;6.80;3.40;;;;;;;2.84;83.25;98469.42;79405;1298;3018541;-65
2024/02/10 05:32:09;;;;;;;5.60;3.80;;;;;;;2.66;84.38;98473.33;79536;1294;3011854;-63
2024/02/10 05:34:38;;;;;;;4.80;3.50;;;;;;;2.48;84.78;98474.10;78243;1298;3025721;-65
2024/02/10 05:37:05;;;;;;;5.10;3.70;;;;;;;2.36;85.78;98477.75;79476;1295;3011825;-64
2024/02/10 05:39:32;;;;;;;5.50;3.70;;;;;;;2.37;86.17;98476.63;79399;1295;3011626;-63
2024/02/10 05:42:00;;;;;;;5.90;3.70;;;;;;;2.34;85.88;98477.81;78338;1298;3058075;-62
2024/02/10 05:44:27;;;;;;;7.80;4.30;;;;;;;2.27;86.23;98481.73;79555;1295;3013022;-63
2024/02/10 05:46:54;;;;;;;4.70;3.30;;;;;;;2.21;86.59;98483.55;79352;1295;3013522;-64
2024/02/10 05:49:23;;;;;;;5.10;3.40;;;;;;;2.72;86.00;98488.94;78286;1298;3052646;-66
2024/02/10 05:51:50;;;;;;;9.80;3.00;;;;;;;3.38;83.43;98492.73;79442;1298;3013129;-64
2024/02/10 05:54:17;;;;;;;5.40;3.50;;;;;;;3.54;82.26;98495.44;79424;1296;3012700;-67
2024/02/10 05:56:46;;;;;;;6.10;4.20;;;;;;;3.53;82.14;98492.73;78101;1299;3056182;-65
2024/02/10 05:59:14;;;;;;;6.80;4.70;;;;;;;3.42;82.24;98486.83;79504;1295;3013614;-65
2024/02/10 06:01:46;;;;;;;4.80;3.80;;;;;;;3.24;82.45;98491.65;78902;1295;3012805;-65
2024/02/10 06:04:13;;;;;;;6.50;4.10;;;;;;;3.16;82.55;98497.92;79430;1294;3012027;-65
2024/02/10 06:06:45;;;;;;;7.50;4.60;;;;;;;2.98;82.90;98502.17;78277;1297;3025197;-63
2024/02/10 06:09:12;;;;;;;8.20;4.70;;;;;;;2.95;83.48;98506.80;79781;1298;3011570;-63
2024/02/10 06:11:40;;;;;;;8.00;4.90;;;;;;;2.83;83.55;98503.86;78341;1298;3026467;-66
2024/02/10 06:14:08;;;;;;;7.20;5.10;;;;;;;2.76;84.31;98507.81;79724;1294;3013660;-64
2024/02/10 06:16:35;;;;;;;7.30;4.40;;;;;;;2.74;84.43;98511.35;79564;1294;3011651;-63
2024/02/10 06:19:04;;;;;;;7.30;4.40;;;;;;;2.70;84.59;98516.90;78353;1297;3055006;-64
2024/02/10 06:21:35;;;;;;;7.90;4.00;;;;;;;2.67;84.50;98514.59;79409;1299;3014600;-64
2024/02/10 06:24:04;;;;;;;7.30;4.30;;;;;;;3.07;83.76;98515.27;78259;1298;3052605;-62
2024/02/10 06:26:36;;;;;;;7.50;4.70;;;;;;;3.69;81.95;98513.80;79582;1297;3013489;-62
2024/02/10 06:29:05;;;;;;;6.80;4.30;;;;;;;3.78;80.83;98515.27;78226;1295;3055484;-63
2024/02/10 06:31:32;;;;;;;7.70;4.80;;;;;;;3.61;80.79;98519.02;79593;1295;3015505;-63
2024/02/10 06:34:00;;;;;;;8.20;5.10;;;;;;;3.38;81.66;98515.04;79546;1295;3011655;-65
2024/02/10 06:36:30;;;;;;;8.20;5.20;;;;;;;3.31;81.98;98512.45;78245;1298;3053669;-64
2024/02/10 06:38:57;;;;;;;8.60;5.30;;;;;;;3.00;82.84;98513.01;79453;1297;3012878;-63
2024/02/10 06:41:25;;;;;;;8.50;5.70;;;;;;;2.82;83.70;98508.39;79752;1295;3011860;-63
2024/02/10 06:43:55;;;;;;;7.90;5.00;;;;;;;2.67;84.64;98507.67;78361;1298;3055660;-64
2024/02/10 06:46:22;;;;;;;8.50;5.30;;;;;;;2.55;85.15;98508.01;79523;1295;3013684;-64
2024/02/10 06:48:48;;;;;;;7.40;4.60;;;;;;;2.44;85.68;98510.03;79703;1298;3013042;-65
2024/02/10 06:51:18;;;;;;;7.00;4.70;;;;;;;2.29;86.64;98512.08;78225;1298;3052259;-66
2024/02/10 06:53:45;;;;;;;9.20;5.00;;;;;;;2.34;87.09;98522.23;79697;1298;3011745;-65
2024/02/10 06:56:12;;;;;;;6.40;4.70;;;;;;;2.42;87.13;98526.05;79704;1294;3011869;-67
2024/02/10 06:58:41;;;;;;;9.20;4.50;;;;;;;2.91;85.50;98526.03;78299;1296;3055645;-67
2024/02/10 07:01:09;;;;;;;7.90;4.90;;;;;;;3.43;83.18;98523.86;79949;1295;3013707;-65
2024/02/10 07:03:38;;;;;;;7.60;5.20;;;;;;;3.58;82.17;98527.12;78963;1297;3013273;-66
2024/02/10 07:06:09;;;;;;;7.50;5.10;;;;;;;3.53;82.00;98533.44;79536;1298;3011737;-67
2024/02/10 07:08:40;;;;;;;6.70;4.20;;;;;;;3.29;82.43;98533.85;78608;1298;3052684;-68
2024/02/10 07:11:07;;;;;;;8.80;5.00;;;;;;;3.22;83.14;98535.36;79466;1295;3011596;-68
2024/02/10 07:13:36;;;;;;;8.00;5.10;;;;;;;3.04;83.71;98535.48;79138;1294;3011595;-67
2024/02/10 07:16:06;;;;;;;7.70;5.50;;;;;;;3.05;83.89;98538.70;79492;1295;3014190;-64
2024/02/10 07:18:46;;;;;;;10.40;5.60;;;;;;;2.96;83.94;98537.21;79008;1295;3011827;-63
2024/02/10 07:21:17;;;;;;;10.10;6.00;;;;;;;2.83;84.30;98528.77;78253;1298;3054024;-63
2024/02/10 07:23:44;;;;;;;13.50;6.50;;;;;;;2.71;85.20;98533.30;79818;1298;3011658;-66
2024/02/10 07:26:12;;;;;;;12.60;7.00;;;;;;;2.62;85.64;98545.60;78211;1297;3025956;-69
2024/02/10 07:28:39;;;;;;;13.00;7.10;;;;;;;2.56;85.93;98551.53;79245;1298;3014985;-62
2024/02/10 07:31:06;;;;;;;9.70;5.50;;;;;;;2.47;86.40;98554.35;79289;1298;3011912;-63
2024/02/10 07:33:34;;;;;;;9.40;5.90;;;;;;;2.98;85.95;98557.33;78278;1298;3026979;-66
2024/02/10 07:36:02;;;;;;;11.90;6.40;;;;;;;3.51;83.39;98555.83;79523;1295;3013764;-65
2024/02/10 07:38:29;;;;;;;14.70;5.90;;;;;;;3.80;82.63;98557.79;79433;1298;3012965;-66
2024/02/10 07:40:58;;;;;;;11.10;6.10;;;;;;;3.70;82.12;98560.49;78400;1298;3053530;-62
2024/02/10 07:43:27;;;;;;;13.30;7.30;;;;;;;3.55;82.32;98566.41;79635;1295;3013533;-65
2024/02/10 07:45:56;;;;;;;11.10;6.70;;;;;;;3.37;82.69;98561.69;78893;1295;3011592;-66
2024/02/10 07:48:23;;;;;;;16.00;7.50;;;;;;;3.25;83.56;98555.83;79493;1293;3015021;-62
2024/02/10 07:50:54;;;;;;;16.60;8.10;;;;;;;3.08;83.82;98554.51;79523;1298;3011917;-66
2024/02/10 07:53:23;;;;;;;14.40;8.40;;;;;;;3.10;84.38;98555.42;78339;1293;3053400;-61
2024/02/10 07:55:50;;;;;;;13.90;7.70;;;;;;;3.02;84.35;98557.52;79534;1298;3013885;-67
2024/02/10 07:58:17;;;;;;;14.60;8.70;;;;;;;2.91;84.86;98558.86;79718;1297;3011646;-65
2024/02/10 08:00:46;;;;;;;17.90;9.60;;;;;;;2.76;85.61;98557.30;78359;1298;3069293;-67
2024/02/10 08:03:13;;;;;;;12.30;6.30;;;;;;;2.72;86.34;98560.04;79412;1295;3013254;-70
2024/02/10 08:05:42;;;;;;;17.80;8.40;;;;;;;3.31;85.24;98563.48;79424;1295;3011835;-64
2024/02/10 08:08:10;;;;;;;15.40;8.30;;;;;;;3.92;82.81;98562.44;78467;1295;3053149;-66
2024/02/10 08:10:37;;;;;;;14.50;8.50;;;;;;;4.14;81.71;98561.53;79585;1298;3013727;-67
2024/02/10 08:13:03;;;;;;;13.60;8.50;;;;;;;4.01;81.35;98561.63;79419;1298;3011979;-62
2024/02/10 08:15:32;;;;;;;17.40;9.70;;;;;;;3.84;81.58;98564.18;78174;1296;3069318;-71
2024/02/10 08:18:05;;;;;;;17.80;8.90;;;;;;;3.63;82.37;98562.55;79506;1296;3013769;-64
2024/02/10 08:20:34;;;;;;;18.00;9.80;;;;;;;3.54;82.69;98568.16;78237;1298;3049229;-63
2024/02/10 08:23:01;;;;;;;19.70;10.20;;;;;;;3.33;83.60;98568.27;79484;1295;3013013;-66
2024/02/10 08:25:28;;;;;;;19.60;10.30;;;;;;;3.30;84.16;98571.52;79599;1295;3011459;-65
2024/02/10 08:27:59;;;;;;;17.80;9.50;;;;;;;3.28;84.45;98579.57;78317;1298;3053181;-66
2024/02/10 08:30:27;;;;;;;21.70;11.20;;;;;;;3.14;84.84;98580.90;79539;1295;3013067;-63
2024/02/10 08:32:58;;;;;;;19.70;10.60;;;;;;;3.07;85.46;98582.58;78207;1295;3024878;-64
2024/02/10 08:35:27;;;;;;;15.80;7.30;;;;;;;3.07;85.63;98572.89;79616;1295;3011642;-69
2024/02/10 08:37:55;;;;;;;17.00;8.80;;;;;;;3.57;84.60;98574.94;78425;1298;3049955;-65
2024/02/10 08:40:22;;;;;;;17.30;7.70;;;;;;;4.26;82.36;98570.81;79669;1294;3011488;-64
2024/02/10 08:42:52;;;;;;;17.30;9.40;;;;;;;4.34;81.13;98566.61;79399;1298;3011610;-64
2024/02/10 08:45:20;;;;;;;19.20;9.40;;;;;;;4.21;81.14;98572.95;78201;1298;3053646;-64
2024/02/10 08:47:47;;;;;;;18.20;10.70;;;;;;;4.05;81.55;98571.00;79420;1298;3013982;-63
2024/02/10 08:50:14;;;;;;;22.60;11.70;;;;;;;3.95;82.02;98576.85;79480;1298;3012816;-64
2024/02/10 08:52:47;;;;;;;20.30;11.40;;;;;;;3.79;82.47;98573.78;78444;1295;3028577;-66
2024/02/10 08:55:14;;;;;;;23.20;11.60;;;;;;;3.56;83.35;98568.78;79619;1295;3011690;-65
2024/02/10 08:57:43;;;;;;;21.60;11.60;;;;;;;3.39;84.13;98560.38;78160;1299;3050698;-65
2024/02/10 09:00:11;;;;;;;20.40;11.00;;;;;;;3.29;84.97;98558.77;79530;1298;3012916;-62
2024/02/10 09:02:38;;;;;;;21.80;11.10;;;;;;;3.25;85.34;98555.83;79525;1294;3012886;-65
2024/02/10 09:05:07;;;;;;;22.80;11.50;;;;;;;3.21;85.66;98553.94;78381;1294;3050971;-64
2024/02/10 09:07:34;;;;;;;17.30;7.80;;;;;;;3.21;85.93;98549.27;79592;1297;3013545;-65
2024/02/10 09:10:00;;;;;;;20.30;10.50;;;;;;;3.74;85.06;98541.63;79499;1294;3013671;-64
2024/02/10 09:12:30;;;;;;;19.90;9.60;;;;;;;4.26;82.49;98540.31;78448;1297;3048816;-67
2024/02/10 09:14:56;;;;;;;18.90;10.30;;;;;;;4.43;81.56;98541.02;79506;1298;3013522;-69
2024/02/10 09:17:23;;;;;;;17.30;9.50;;;;;;;4.33;81.53;98547.60;79461;1296;3011693;-64
2024/02/10 09:19:51;;;;;;;22.00;11.20;;;;;;;4.29;81.81;98554.40;78302;1298;3051173;-65
2024/02/10 09:22:18;;;;;;;20.80;10.10;;;;;;;4.16;82.00;98548.98;79632;1298;3013344;-65
2024/02/10 09:24:45;;;;;;;16.70;10.10;;;;;;;4.05;82.33;98540.47;79362;1297;3011871;-63
2024/02/10 09:27:13;;;;;;;18.50;10.50;;;;;;;3.74;83.03;98539.84;78398;1296;3026658;-64
2024/02/10 09:29:40;;;;;;;19.50;10.70;;;;;;;3.64;83.86;98546.23;79556;1298;3013435;-67
2024/02/10 09:32:06;;;;;;;23.90;11.70;;;;;;;3.61;84.25;98550.71;79572;1298;3011804;-64
2024/02/10 09:34:34;;;;;;;24.30;11.60;;;;;;;3.54;84.93;98553.10;78386;1311;3028980;-64
2024/02/10 09:37:01;;;;;;;21.20;11.90;;;;;;;3.51;85.42;98554.44;79449;1295;3018414;-64
2024/02/10 09:39:28;;;;;;;13.90;7.70;;;;;;;3.50;85.36;98555.88;79626;1296;3011612;-66
2024/02/10 09:41:59;;;;;;;19.10;8.90;;;;;;;4.11;84.58;98557.84;78436;1301;3026443;-66
2024/02/10 09:44:26;;;;;;;19.00;9.50;;;;;;;4.69;81.69;98552.55;79401;1300;3011557;-66
2024/02/10 09:46:56;;;;;;;18.60;9.30;;;;;;;4.94;80.74;98555.64;78312;1300;3026119;-63
2024/02/10 09:49:23;;;;;;;18.60;9.70;;;;;;;4.87;80.52;98559.26;79220;1301;3013235;-64
2024/02/10 09:51:52;;;;;;;22.60;10.70;;;;;;;4.76;80.53;98557.05;79100;1296;3011591;-65
2024/02/10 09:54:19;;;;;;;20.70;10.80;;;;;;;4.49;81.05;98555.81;79341;1298;3018917;-63
2024/02/10 09:56:46;;;;;;;22.00;10.60;;;;;;;4.36;81.52;98558.73;79272;1295;3011549;-65
2024/02/10 09:59:18;;;;;;;21.80;11.10;;;;;;;4.22;82.37;98566.20;78276;1301;3028127;-64
2024/02/10 10:01:45;;;;;;;25.80;11.20;;;;;;;4.13;82.73;98562.97;79363;1300;3011723;-63
2024/02/10 10:04:14;;;;;;;25.40;12.30;;;;;;;4.02;83.48;98564.70;78141;1308;3052203;-67
2024/02/10 10:06:43;;;;;;;23.30;12.00;;;;;;;4.01;83.77;98564.59;79626;1300;3013443;-63
2024/02/10 10:09:14;;;;;;;26.60;12.10;;;;;;;3.96;84.20;98564.98;78934;1296;3011739;-62
2024/02/10 10:11:42;;;;;;;23.20;11.80;;;;;;;3.91;84.65;98559.33;79330;1298;3012855;-63
2024/02/10 10:14:13;;;;;;;19.00;8.90;;;;;;;3.91;84.86;98559.17;79028;1295;3013000;-67
2024/02/10 10:16:41;;;;;;;19.50;10.20;;;;;;;4.54;83.76;98557.14;79524;1296;3013268;-66
2024/02/10 10:19:19;;;;;;;22.70;10.90;;;;;;;5.07;80.73;98556.02;78886;1301;3034191;-67
2024/02/10 10:21:49;;;;;;;21.10;10.40;;;;;;;5.25;79.81;98553.30;78147;1301;3052159;-67
2024/02/10 10:24:16;;;;;;;21.80;11.00;;;;;;;5.16;79.52;98550.14;79370;1301;3011475;-66
2024/02/10 10:26:53;;;;;;;23.60;11.90;;;;;;;4.96;79.95;98550.48;78917;1297;3011842;-64
2024/02/10 10:29:21;;;;;;;26.70;12.30;;;;;;;4.82;80.78;98549.30;78251;1302;3051985;-65
2024/02/10 10:31:51;;;;;;;28.60;12.20;;;;;;;4.68;81.54;98548.30;79499;1300;3019144;-64
2024/02/10 10:34:20;;;;;;;26.90;13.30;;;;;;;4.53;82.03;98550.95;78915;1295;3011301;-65
2024/02/10 10:36:48;;;;;;;24.00;11.60;;;;;;;4.42;82.63;98554.43;79404;1298;3013695;-67
2024/02/10 10:39:14;;;;;;;25.70;13.60;;;;;;;4.33;82.89;98558.72;79549;1300;3011841;-64
2024/02/10 10:41:48;;;;;;;27.20;13.30;;;;;;;4.21;83.29;98561.89;78150;1301;3052058;-64
2024/02/10 10:44:16;;;;;;;24.20;12.20;;;;;;;4.15;83.77;98564.77;79252;1301;3012795;-64
2024/02/10 10:46:45;;;;;;;21.00;10.90;;;;;;;4.06;84.01;98570.27;78210;1297;3051608;-64
2024/02/10 10:49:11;;;;;;;24.60;11.70;;;;;;;4.03;84.22;98564.82;79553;1296;3018929;-66
2024/02/10 10:51:52;;;;;;;18.30;9.20;;;;;;;3.93;84.55;98561.88;79243;1300;3011646;-65
2024/02/10 10:54:20;;;;;;;20.70;10.50;;;;;;;4.46;83.63;98560.14;78068;1300;3050064;-70
2024/02/10 10:56:48;;;;;;;26.80;11.30;;;;;;;5.07;81.67;98564.70;79231;1301;3013157;-67
2024/02/10 10:59:14;;;;;;;19.80;10.20;;;;;;;5.19;80.56;98566.65;79398;1301;3011603;-68
2024/02/10 11:01:43;;;;;;;22.60;10.60;;;;;;;5.08;80.50;98559.07;78139;1301;3051794;-66
2024/02/10 11:04:14;;;;;;;26.10;11.90;;;;;;;4.80;80.95;98560.88;79239;1300;3013357;-68
2024/02/10 11:06:45;;;;;;;23.10;11.90;;;;;;;4.60;81.93;98561.72;78152;1300;3053601;-62
2024/02/10 11:09:20;;;;;;;20.10;11.20;;;;;;;4.31;82.83;98559.83;79538;1301;3013980;-61
2024/02/10 11:11:48;;;;;;;24.30;11.70;;;;;;;4.22;84.06;98559.75;78260;1300;3051563;-62
2024/02/10 11:14:15;;;;;;;28.40;12.50;;;;;;;4.30;84.52;98557.61;79020;1300;3012885;-66
2024/02/10 11:16:43;;;;;;;28.60;12.60;;;;;;;4.32;84.46;98558.38;79363;1301;3011831;-64
2024/02/10 11:19:14;;;;;;;24.80;12.60;;;;;;;4.33;84.17;98556.64;78082;1309;3057521;-68
2024/02/10 11:21:41;;;;;;;19.40;9.50;;;;;;;4.29;84.73;98560.98;79526;1298;3011468;-64
2024/02/10 11:24:14;;;;;;;21.20;10.40;;;;;;;4.77;83.62;98553.73;78350;1299;3052702;-64
2024/02/10 11:26:42;;;;;;;20.40;9.80;;;;;;;5.34;81.28;98559.58;79664;1299;3011746;-63